createdAt,value
2017-12-02T00:00:58.569Z,90.40
2017-12-02T00:02:01.101Z,90.40
2017-12-02T00:03:04.415Z,90.20
2017-12-02T00:04:06.938Z,90.20
2017-12-02T00:05:10.243Z,90.20
2017-12-02T00:06:13.541Z,90.30
2017-12-02T00:07:16.116Z,90.30
2017-12-02T00:08:18.633Z,90.30
2017-12-02T00:09:21.193Z,90.30
2017-12-02T00:10:23.717Z,90.20
2017-12-02T00:11:26.233Z,90.20
2017-12-02T00:12:28.750Z,90.20
2017-12-02T00:13:31.272Z,90.30
2017-12-02T00:14:34.593Z,90.40
2017-12-02T00:15:37.110Z,90.40
2017-12-02T00:16:39.650Z,90.40
2017-12-02T00:17:42.214Z,90.30
2017-12-02T00:18:44.784Z,90.20
2017-12-02T00:19:47.302Z,90.00
2017-12-02T00:20:50.602Z,89.90
2017-12-02T00:21:53.129Z,89.80
2017-12-02T00:22:55.652Z,89.80
2017-12-02T00:23:58.203Z,89.70
2017-12-02T00:25:00.780Z,90.00
2017-12-02T00:26:04.029Z,90.10
2017-12-02T00:27:07.321Z,90.00
2017-12-02T00:28:10.629Z,90.00
2017-12-02T00:29:13.198Z,90.00
2017-12-02T00:30:15.720Z,90.10
2017-12-02T00:31:18.244Z,90.40
2017-12-02T00:32:20.787Z,90.40
2017-12-02T00:33:23.317Z,90.40
2017-12-02T00:34:25.875Z,90.40
2017-12-02T00:35:28.430Z,90.40
2017-12-02T00:36:30.941Z,90.50
2017-12-02T00:37:33.459Z,90.50
2017-12-02T00:38:35.972Z,90.40
2017-12-02T00:39:38.501Z,90.30
2017-12-02T00:40:41.058Z,90.20
2017-12-02T00:41:43.590Z,90.40
2017-12-02T00:42:46.108Z,90.40
2017-12-02T00:43:48.629Z,90.40
2017-12-02T00:44:51.144Z,90.30
2017-12-02T00:45:54.471Z,90.60
2017-12-02T00:46:57.028Z,90.30
2017-12-02T00:47:59.546Z,90.20
2017-12-02T00:49:02.068Z,90.00
2017-12-02T00:50:04.593Z,89.70
2017-12-02T00:51:07.886Z,89.80
2017-12-02T00:52:11.218Z,89.50
2017-12-02T00:53:13.925Z,89.50
2017-12-02T00:54:16.458Z,89.50
2017-12-02T00:55:18.976Z,89.40
2017-12-02T00:56:22.265Z,89.50
2017-12-02T00:57:25.602Z,89.70
2017-12-02T00:58:28.146Z,89.60
2017-12-02T00:59:30.666Z,89.80
2017-12-02T01:00:33.952Z,90.10
2017-12-02T01:01:37.244Z,90.20
2017-12-02T01:02:40.568Z,90.20
2017-12-02T01:03:43.090Z,90.20
2017-12-02T01:04:46.387Z,90.40
2017-12-02T01:05:48.926Z,90.40
2017-12-02T01:06:51.446Z,90.30
2017-12-02T01:07:54.009Z,90.60
2017-12-02T01:08:56.527Z,90.40
2017-12-02T01:09:59.044Z,90.40
2017-12-02T01:11:01.567Z,90.40
2017-12-02T01:12:04.860Z,90.40
2017-12-02T01:13:08.169Z,90.40
2017-12-02T01:14:10.738Z,90.40
2017-12-02T01:15:13.260Z,90.50
2017-12-02T01:16:16.561Z,90.70
2017-12-02T01:17:19.088Z,90.70
2017-12-02T01:18:21.622Z,90.80
2017-12-02T01:19:24.176Z,90.70
2017-12-02T01:20:26.696Z,90.70
2017-12-02T01:21:29.265Z,90.80
2017-12-02T01:22:31.790Z,90.80
2017-12-02T01:23:34.312Z,90.80
2017-12-02T01:24:37.605Z,90.90
2017-12-02T01:25:40.890Z,90.80
2017-12-02T01:26:44.219Z,90.80
2017-12-02T01:27:46.746Z,90.80
2017-12-02T01:28:49.277Z,90.80
2017-12-02T01:29:51.790Z,91.10
2017-12-02T01:30:54.301Z,90.80
2017-12-02T01:31:56.858Z,90.50
2017-12-02T01:32:59.373Z,90.30
2017-12-02T01:34:01.923Z,90.40
2017-12-02T01:35:05.368Z,90.20
2017-12-02T01:36:07.918Z,90.20
2017-12-02T01:37:10.437Z,90.10
2017-12-02T01:38:12.949Z,90.00
2017-12-02T01:39:15.505Z,90.40
2017-12-02T01:40:18.024Z,90.40
2017-12-02T01:41:20.541Z,90.20
2017-12-02T01:42:23.059Z,90.40
2017-12-02T01:43:25.613Z,90.40
2017-12-02T01:44:28.158Z,90.30
2017-12-02T01:45:30.705Z,90.20
2017-12-02T01:46:33.222Z,90.10
2017-12-02T01:47:35.746Z,90.20
2017-12-02T01:48:38.294Z,90.30
2017-12-02T01:49:40.809Z,90.20
2017-12-02T01:50:43.365Z,90.30
2017-12-02T01:51:45.891Z,90.20
2017-12-02T01:52:48.410Z,90.20
2017-12-02T01:53:50.934Z,90.20
2017-12-02T01:54:53.494Z,90.20
2017-12-02T01:55:56.014Z,90.20
2017-12-02T01:56:58.533Z,90.20
2017-12-02T01:58:01.061Z,90.30
2017-12-02T01:59:04.337Z,90.50
2017-12-02T02:00:06.897Z,90.40
2017-12-02T02:01:09.431Z,90.50
2017-12-02T02:02:12.717Z,90.60
2017-12-02T02:03:15.251Z,90.40
2017-12-02T02:04:17.805Z,90.50
2017-12-02T02:05:21.085Z,90.30
2017-12-02T02:06:24.368Z,90.30
2017-12-02T02:07:26.881Z,90.30
2017-12-02T02:08:29.434Z,90.40
2017-12-02T02:09:32.030Z,90.40
2017-12-02T02:10:34.545Z,90.40
2017-12-02T02:11:37.101Z,90.30
2017-12-02T02:12:40.377Z,90.40
2017-12-02T02:13:43.668Z,90.40
2017-12-02T02:14:46.986Z,90.50
2017-12-02T02:15:49.501Z,90.50
2017-12-02T02:16:52.032Z,90.60
2017-12-02T02:17:54.549Z,90.70
2017-12-02T02:18:57.860Z,90.40
2017-12-02T02:20:00.378Z,90.40
2017-12-02T02:21:02.912Z,90.50
2017-12-02T02:22:05.470Z,90.40
2017-12-02T02:23:07.990Z,90.40
2017-12-02T02:24:11.265Z,90.50
2017-12-02T02:25:13.940Z,90.50
2017-12-02T02:26:16.458Z,90.40
2017-12-02T02:27:19.026Z,90.30
2017-12-02T02:28:21.541Z,90.40
2017-12-02T02:29:24.093Z,90.40
2017-12-02T02:30:26.617Z,90.30
2017-12-02T02:31:29.148Z,90.10
2017-12-02T02:32:32.497Z,90.20
2017-12-02T02:33:34.985Z,90.20
2017-12-02T02:34:38.308Z,90.20
2017-12-02T02:35:40.830Z,90.10
2017-12-02T02:36:43.352Z,90.10
2017-12-02T02:37:45.875Z,90.20
2017-12-02T02:38:49.166Z,90.20
2017-12-02T02:39:51.776Z,90.10
2017-12-02T02:40:54.306Z,90.10
2017-12-02T02:41:56.824Z,90.10
2017-12-02T02:42:59.345Z,90.30
2017-12-02T02:44:01.870Z,90.50
2017-12-02T02:45:04.430Z,90.60
2017-12-02T02:46:06.943Z,90.80
2017-12-02T02:47:09.471Z,90.50
2017-12-02T02:48:11.999Z,90.50
2017-12-02T02:49:14.582Z,90.50
2017-12-02T02:50:17.260Z,90.60
2017-12-02T02:51:19.951Z,90.60
2017-12-02T02:52:22.521Z,90.50
2017-12-02T02:53:25.809Z,90.60
2017-12-02T02:54:29.128Z,90.70
2017-12-02T02:55:31.649Z,90.70
2017-12-02T02:56:34.169Z,90.70
2017-12-02T02:57:36.688Z,90.90
2017-12-02T02:58:40.025Z,90.90
2017-12-02T02:59:42.549Z,90.90
2017-12-02T03:00:45.081Z,90.80
2017-12-02T03:01:47.605Z,90.70
2017-12-02T03:02:50.117Z,90.70
2017-12-02T03:03:52.676Z,90.50
2017-12-02T03:04:55.206Z,90.50
2017-12-02T03:05:57.720Z,90.60
2017-12-02T03:07:00.249Z,90.70
2017-12-02T03:08:02.806Z,90.90
2017-12-02T03:09:05.333Z,91.00
2017-12-02T03:10:08.626Z,91.40
2017-12-02T03:11:11.153Z,91.40
2017-12-02T03:12:13.669Z,91.40
2017-12-02T03:13:16.365Z,91.30
2017-12-02T03:14:18.934Z,91.40
2017-12-02T03:15:21.679Z,91.30
2017-12-02T03:16:24.196Z,91.20
2017-12-02T03:17:26.770Z,91.20
2017-12-02T03:18:29.290Z,91.20
2017-12-02T03:19:31.858Z,91.50
2017-12-02T03:20:34.369Z,91.20
2017-12-02T03:21:36.889Z,91.10
2017-12-02T03:22:39.401Z,91.00
2017-12-02T03:23:41.929Z,91.20
2017-12-02T03:24:44.473Z,91.30
2017-12-02T03:25:47.762Z,91.40
2017-12-02T03:26:50.273Z,91.40
2017-12-02T03:27:52.794Z,91.40
2017-12-02T03:28:55.322Z,91.40
2017-12-02T03:29:58.637Z,91.30
2017-12-02T03:31:01.176Z,91.30
2017-12-02T03:32:04.469Z,91.50
2017-12-02T03:33:07.772Z,91.50
2017-12-02T03:34:10.333Z,91.50
2017-12-02T03:35:12.954Z,91.50
2017-12-02T03:36:15.477Z,91.50
2017-12-02T03:37:18.032Z,91.50
2017-12-02T03:38:20.551Z,91.70
2017-12-02T03:39:23.075Z,91.70
2017-12-02T03:40:25.601Z,91.70
2017-12-02T03:41:28.881Z,92.10
2017-12-02T03:42:31.442Z,91.80
2017-12-02T03:43:33.958Z,91.70
2017-12-02T03:44:36.469Z,91.80
2017-12-02T03:45:38.991Z,92.10
2017-12-02T03:46:41.519Z,91.80
2017-12-02T03:47:44.837Z,91.60
2017-12-02T03:48:47.359Z,91.60
2017-12-02T03:49:49.897Z,91.70
2017-12-02T03:50:52.425Z,91.80
2017-12-02T03:51:54.977Z,91.80
2017-12-02T03:52:58.302Z,91.60
2017-12-02T03:54:00.828Z,91.60
2017-12-02T03:55:04.105Z,91.40
2017-12-02T03:56:07.393Z,91.30
2017-12-02T03:57:10.673Z,91.20
2017-12-02T03:58:13.994Z,91.10
2017-12-02T03:59:16.518Z,91.10
2017-12-02T04:00:19.934Z,91.20
2017-12-02T04:01:22.682Z,91.10
2017-12-02T04:02:25.962Z,91.10
2017-12-02T04:03:29.254Z,91.20
2017-12-02T04:04:31.778Z,91.20
2017-12-02T04:05:34.340Z,91.20
2017-12-02T04:06:36.864Z,91.10
2017-12-02T04:07:39.394Z,91.00
2017-12-02T04:08:41.919Z,91.10
2017-12-02T04:09:44.486Z,91.10
2017-12-02T04:10:47.002Z,91.10
2017-12-02T04:11:49.569Z,91.10
2017-12-02T04:12:52.861Z,91.00
2017-12-02T04:13:56.145Z,91.10
2017-12-02T04:14:59.428Z,91.10
2017-12-02T04:16:02.723Z,91.10
2017-12-02T04:17:05.289Z,91.10
2017-12-02T04:18:07.814Z,91.10
2017-12-02T04:19:10.337Z,91.00
2017-12-02T04:20:12.856Z,91.00
2017-12-02T04:21:15.466Z,91.00
2017-12-02T04:22:18.033Z,91.00
2017-12-02T04:23:20.549Z,90.90
2017-12-02T04:24:23.073Z,91.10
2017-12-02T04:25:25.592Z,91.00
2017-12-02T04:26:28.113Z,91.00
2017-12-02T04:27:30.768Z,90.90
2017-12-02T04:28:33.285Z,91.20
2017-12-02T04:29:35.801Z,91.20
2017-12-02T04:30:38.317Z,91.30
2017-12-02T04:31:40.840Z,91.40
2017-12-02T04:32:43.382Z,91.40
2017-12-02T04:33:45.908Z,91.40
2017-12-02T04:34:48.486Z,91.40
2017-12-02T04:35:51.046Z,91.50
2017-12-02T04:36:53.574Z,91.50
2017-12-02T04:37:56.096Z,91.50
2017-12-02T04:38:59.380Z,91.50
2017-12-02T04:40:02.670Z,91.40
2017-12-02T04:41:05.976Z,91.50
2017-12-02T04:42:08.493Z,91.50
2017-12-02T04:43:11.007Z,91.50
2017-12-02T04:44:13.576Z,91.60
2017-12-02T04:45:16.098Z,91.50
2017-12-02T04:46:18.620Z,91.30
2017-12-02T04:47:21.149Z,91.60
2017-12-02T04:48:24.433Z,91.20
2017-12-02T04:49:27.757Z,91.30
2017-12-02T04:50:30.273Z,91.20
2017-12-02T04:51:33.569Z,91.20
2017-12-02T04:52:36.095Z,91.20
2017-12-02T04:53:38.608Z,91.20
2017-12-02T04:54:41.179Z,91.30
2017-12-02T04:55:43.726Z,91.30
2017-12-02T04:56:47.008Z,91.50
2017-12-02T04:57:50.294Z,91.30
2017-12-02T04:58:53.578Z,91.30
2017-12-02T04:59:56.902Z,91.30
2017-12-02T05:00:59.605Z,91.30
2017-12-02T05:02:02.226Z,91.20
2017-12-02T05:03:04.742Z,91.30
2017-12-02T05:04:07.261Z,91.40
2017-12-02T05:05:09.786Z,91.40
2017-12-02T05:06:12.333Z,91.30
2017-12-02T05:07:14.851Z,91.60
2017-12-02T05:08:17.371Z,91.30
2017-12-02T05:09:19.891Z,91.30
2017-12-02T05:10:22.454Z,91.20
2017-12-02T05:11:24.964Z,91.00
2017-12-02T05:12:27.504Z,91.10
2017-12-02T05:13:30.024Z,91.30
2017-12-02T05:14:33.305Z,91.00
2017-12-02T05:15:36.641Z,91.40
2017-12-02T05:16:39.152Z,91.00
2017-12-02T05:17:42.440Z,91.30
2017-12-02T05:18:45.754Z,91.30
2017-12-02T05:19:48.321Z,91.30
2017-12-02T05:20:50.839Z,91.30
2017-12-02T05:21:53.358Z,91.20
2017-12-02T05:22:55.901Z,91.20
2017-12-02T05:23:58.425Z,91.30
2017-12-02T05:25:00.989Z,91.40
2017-12-02T05:26:03.504Z,91.50
2017-12-02T05:27:06.029Z,91.50
2017-12-02T05:28:08.549Z,91.40
2017-12-02T05:29:11.107Z,91.40
2017-12-02T05:30:13.620Z,91.40
2017-12-02T05:31:16.130Z,91.50
2017-12-02T05:32:18.774Z,91.50
2017-12-02T05:33:21.296Z,91.60
2017-12-02T05:34:23.814Z,91.90
2017-12-02T05:35:27.098Z,91.60
2017-12-02T05:36:30.373Z,91.60
2017-12-02T05:37:32.946Z,91.60
2017-12-02T05:38:36.224Z,91.40
2017-12-02T05:39:39.508Z,91.60
2017-12-02T05:40:42.798Z,91.40
2017-12-02T05:41:45.342Z,91.40
2017-12-02T05:42:47.989Z,91.30
2017-12-02T05:43:50.520Z,91.30
2017-12-02T05:44:53.051Z,91.40
2017-12-02T05:45:55.579Z,91.40
2017-12-02T05:46:58.095Z,91.50
2017-12-02T05:48:01.418Z,91.50
2017-12-02T05:49:03.933Z,91.70
2017-12-02T05:50:06.449Z,91.50
2017-12-02T05:51:09.023Z,91.50
2017-12-02T05:52:11.545Z,91.30
2017-12-02T05:53:14.865Z,91.40
2017-12-02T05:54:17.386Z,91.40
2017-12-02T05:55:19.909Z,91.40
2017-12-02T05:56:22.482Z,91.50
2017-12-02T05:57:25.226Z,91.40
2017-12-02T05:58:27.742Z,91.40
2017-12-02T05:59:30.258Z,91.40
2017-12-02T06:00:32.782Z,91.40
2017-12-02T06:01:35.341Z,91.50
2017-12-02T06:02:37.861Z,91.50
2017-12-02T06:03:40.373Z,91.50
2017-12-02T06:04:42.930Z,91.50
2017-12-02T06:05:45.444Z,91.60
2017-12-02T06:06:47.993Z,91.70
2017-12-02T06:07:51.277Z,91.60
2017-12-02T06:08:54.562Z,91.60
2017-12-02T06:09:57.849Z,91.50
2017-12-02T06:11:01.162Z,91.50
2017-12-02T06:12:03.680Z,91.50
2017-12-02T06:13:06.193Z,91.70
2017-12-02T06:14:08.714Z,91.70
2017-12-02T06:15:11.280Z,91.70
2017-12-02T06:16:13.895Z,92.10
2017-12-02T06:17:16.418Z,92.00
2017-12-02T06:18:19.717Z,91.90
2017-12-02T06:19:22.243Z,91.90
2017-12-02T06:20:24.808Z,91.90
2017-12-02T06:21:27.396Z,91.90
2017-12-02T06:22:29.916Z,91.90
2017-12-02T06:23:32.432Z,91.90
2017-12-02T06:24:35.764Z,91.90
2017-12-02T06:25:38.286Z,91.90
2017-12-02T06:26:41.573Z,91.80
2017-12-02T06:27:44.874Z,91.80
2017-12-02T06:28:47.397Z,91.80
2017-12-02T06:29:49.950Z,91.90
2017-12-02T06:30:52.522Z,91.90
2017-12-02T06:31:55.029Z,92.10
2017-12-02T06:32:58.457Z,91.90
2017-12-02T06:34:00.975Z,91.90
2017-12-02T06:35:04.259Z,91.80
2017-12-02T06:36:07.544Z,91.70
2017-12-02T06:37:10.823Z,91.70
2017-12-02T06:38:14.137Z,91.80
2017-12-02T06:39:16.722Z,91.80
2017-12-02T06:40:19.274Z,91.80
2017-12-02T06:41:21.842Z,91.80
2017-12-02T06:42:24.360Z,91.90
2017-12-02T06:43:26.922Z,91.70
2017-12-02T06:44:29.446Z,91.80
2017-12-02T06:45:31.973Z,91.80
2017-12-02T06:46:35.249Z,91.70
2017-12-02T06:47:38.551Z,91.90
2017-12-02T06:48:41.875Z,91.60
2017-12-02T06:49:44.436Z,91.60
2017-12-02T06:50:46.949Z,91.50
2017-12-02T06:51:49.460Z,91.50
2017-12-02T06:52:51.980Z,91.50
2017-12-02T06:53:54.544Z,91.50
2017-12-02T06:54:57.058Z,91.80
2017-12-02T06:55:59.580Z,91.60
2017-12-02T06:57:02.865Z,91.60
2017-12-02T06:58:06.172Z,91.70
2017-12-02T06:59:08.720Z,91.70
2017-12-02T07:00:12.001Z,91.80
2017-12-02T07:01:15.291Z,91.80
2017-12-02T07:02:18.576Z,91.80
2017-12-02T07:03:21.862Z,91.80
2017-12-02T07:04:25.172Z,91.60
2017-12-02T07:05:27.726Z,91.60
2017-12-02T07:06:30.254Z,91.60
2017-12-02T07:07:32.799Z,91.80
2017-12-02T07:08:35.352Z,91.80
2017-12-02T07:09:37.890Z,91.90
2017-12-02T07:10:40.461Z,91.60
2017-12-02T07:11:42.978Z,91.70
2017-12-02T07:12:45.510Z,91.70
2017-12-02T07:13:48.033Z,91.70
2017-12-02T07:14:51.321Z,91.80
2017-12-02T07:15:54.650Z,91.90
2017-12-02T07:16:57.175Z,91.90
2017-12-02T07:18:00.485Z,92.00
2017-12-02T07:19:03.005Z,92.00
2017-12-02T07:20:05.559Z,92.00
2017-12-02T07:21:08.081Z,91.90
2017-12-02T07:22:10.593Z,91.70
2017-12-02T07:23:13.197Z,91.80
2017-12-02T07:24:15.709Z,91.90
2017-12-02T07:25:18.228Z,91.90
2017-12-02T07:26:20.762Z,92.00
2017-12-02T07:27:23.295Z,92.10
2017-12-02T07:28:25.862Z,92.20
2017-12-02T07:29:28.418Z,92.40
2017-12-02T07:30:30.932Z,92.40
2017-12-02T07:31:33.444Z,92.30
2017-12-02T07:32:35.964Z,92.20
2017-12-02T07:33:38.493Z,92.20
2017-12-02T07:34:41.049Z,92.30
2017-12-02T07:35:43.570Z,92.30
2017-12-02T07:36:46.865Z,92.20
2017-12-02T07:37:50.160Z,92.10
2017-12-02T07:38:52.706Z,92.10
2017-12-02T07:39:56.017Z,92.30
2017-12-02T07:40:58.566Z,92.30
2017-12-02T07:42:01.130Z,92.30
2017-12-02T07:43:04.421Z,92.30
2017-12-02T07:44:06.938Z,92.30
2017-12-02T07:45:09.492Z,92.30
2017-12-02T07:46:12.000Z,92.10
2017-12-02T07:47:15.350Z,92.20
2017-12-02T07:48:17.832Z,92.20
2017-12-02T07:49:20.367Z,92.10
2017-12-02T07:50:22.941Z,92.10
2017-12-02T07:51:25.478Z,92.10
2017-12-02T07:52:27.990Z,92.10
2017-12-02T07:53:30.677Z,92.00
2017-12-02T07:54:33.240Z,91.90
2017-12-02T07:55:35.789Z,91.70
2017-12-02T07:56:38.305Z,91.80
2017-12-02T07:57:40.832Z,91.90
2017-12-02T07:58:43.349Z,91.90
2017-12-02T07:59:45.905Z,92.00
2017-12-02T08:00:48.472Z,92.00
2017-12-02T08:01:51.279Z,92.00
2017-12-02T08:02:53.870Z,92.00
2017-12-02T08:03:57.205Z,92.10
2017-12-02T08:04:59.753Z,92.00
2017-12-02T08:06:03.075Z,92.10
2017-12-02T08:07:05.640Z,92.10
2017-12-02T08:08:08.153Z,92.00
2017-12-02T08:09:10.669Z,92.10
2017-12-02T08:10:13.184Z,92.00
2017-12-02T08:11:15.733Z,92.00
2017-12-02T08:12:18.248Z,92.30
2017-12-02T08:13:20.802Z,92.30
2017-12-02T08:14:24.152Z,92.30
2017-12-02T08:15:26.775Z,92.30
2017-12-02T08:16:35.053Z,92.40
2017-12-02T08:17:38.456Z,92.40
2017-12-02T08:18:41.024Z,92.40
2017-12-02T08:19:43.546Z,92.30
2017-12-02T08:20:46.061Z,92.30
2017-12-02T08:21:48.577Z,92.30
2017-12-02T08:22:51.092Z,92.30
2017-12-02T08:23:53.661Z,92.50
2017-12-02T08:24:56.178Z,92.50
2017-12-02T08:25:58.696Z,92.50
2017-12-02T08:27:01.209Z,92.40
2017-12-02T08:28:03.732Z,92.50
2017-12-02T08:29:06.285Z,92.50
2017-12-02T08:30:08.809Z,92.40
2017-12-02T08:31:11.348Z,92.50
2017-12-02T08:32:13.875Z,92.70
2017-12-02T08:33:16.392Z,92.60
2017-12-02T08:34:18.953Z,92.70
2017-12-02T08:35:21.539Z,92.80
2017-12-02T08:36:24.065Z,92.80
2017-12-02T08:37:26.607Z,92.70
2017-12-02T08:38:29.134Z,92.70
2017-12-02T08:39:31.701Z,92.60
2017-12-02T08:40:34.232Z,92.50
2017-12-02T08:41:36.753Z,92.50
2017-12-02T08:42:40.039Z,92.60
2017-12-02T08:43:43.340Z,92.70
2017-12-02T08:44:45.906Z,92.70
2017-12-02T08:45:48.422Z,92.90
2017-12-02T08:46:50.962Z,92.60
2017-12-02T08:47:53.524Z,92.70
2017-12-02T08:48:56.038Z,92.90
2017-12-02T08:49:58.548Z,92.90
2017-12-02T08:51:01.122Z,92.90
2017-12-02T08:52:03.649Z,92.90
2017-12-02T08:53:06.935Z,92.60
2017-12-02T08:54:10.224Z,92.70
2017-12-02T08:55:12.746Z,92.70
2017-12-02T08:56:15.321Z,92.80
2017-12-02T08:57:17.842Z,93.00
2017-12-02T08:58:20.357Z,93.10
2017-12-02T08:59:22.883Z,93.10
2017-12-02T09:01:34.454Z,93.00
2017-12-02T09:02:36.974Z,92.90
2017-12-02T09:03:39.631Z,92.90
2017-12-02T09:04:42.153Z,92.70
2017-12-02T09:05:44.670Z,92.40
2017-12-02T09:06:47.224Z,92.50
2017-12-02T09:07:49.750Z,92.40
2017-12-02T09:08:52.265Z,92.40
2017-12-02T09:09:54.793Z,92.40
2017-12-02T09:10:57.356Z,92.40
2017-12-02T09:11:59.896Z,92.30
2017-12-02T09:13:03.213Z,92.30
2017-12-02T09:14:05.782Z,92.30
2017-12-02T09:15:08.297Z,92.20
2017-12-02T09:16:11.578Z,92.40
2017-12-02T09:17:14.151Z,92.30
2017-12-02T09:18:17.441Z,92.00
2017-12-02T09:19:20.771Z,92.10
2017-12-02T09:20:23.289Z,92.10
2017-12-02T09:21:26.569Z,92.10
2017-12-02T09:22:29.857Z,92.20
2017-12-02T09:23:33.143Z,92.30
2017-12-02T09:24:36.469Z,92.30
2017-12-02T09:25:38.982Z,92.30
2017-12-02T09:26:42.265Z,92.30
2017-12-02T09:27:45.546Z,92.40
2017-12-02T09:28:48.065Z,92.40
2017-12-02T09:29:50.625Z,92.60
2017-12-02T09:30:53.190Z,92.30
2017-12-02T09:31:55.710Z,92.30
2017-12-02T09:32:58.224Z,92.20
2017-12-02T09:34:00.740Z,92.10
2017-12-02T09:35:03.261Z,91.70
2017-12-02T09:36:05.829Z,91.90
2017-12-02T09:37:08.341Z,91.70
2017-12-02T09:38:10.865Z,91.90
2017-12-02T09:39:13.398Z,92.30
2017-12-02T09:40:15.921Z,92.00
2017-12-02T09:41:18.491Z,92.00
2017-12-02T09:42:21.260Z,92.00
2017-12-02T09:43:23.829Z,91.90
2017-12-02T09:44:26.363Z,91.40
2017-12-02T09:45:28.880Z,91.00
2017-12-02T09:46:32.209Z,91.20
2017-12-02T09:47:34.725Z,91.20
2017-12-02T09:48:37.240Z,91.40
2017-12-02T09:49:39.750Z,91.30
2017-12-02T09:50:42.318Z,91.30
2017-12-02T09:51:45.610Z,91.50
2017-12-02T09:52:48.913Z,91.60
2017-12-02T09:53:51.448Z,91.60
2017-12-02T09:54:53.963Z,91.80
2017-12-02T09:55:56.528Z,91.90
2017-12-02T09:56:59.050Z,91.90
2017-12-02T09:58:01.566Z,91.50
2017-12-02T09:59:04.082Z,91.40
2017-12-02T10:00:06.601Z,91.40
2017-12-02T10:01:09.169Z,91.40
2017-12-02T10:02:11.691Z,91.20
2017-12-02T10:03:14.982Z,90.80
2017-12-02T10:04:17.529Z,90.80
2017-12-02T10:05:20.062Z,90.40
2017-12-02T10:06:22.637Z,90.80
2017-12-02T10:07:25.159Z,90.40
2017-12-02T10:08:27.825Z,90.50
2017-12-02T10:09:30.351Z,90.50
2017-12-02T10:10:32.873Z,90.60
2017-12-02T10:11:35.431Z,90.60
2017-12-02T10:12:37.945Z,90.60
2017-12-02T10:13:40.510Z,90.60
2017-12-02T10:14:43.013Z,90.50
2017-12-02T10:15:46.301Z,90.90
2017-12-02T10:16:48.958Z,90.80
2017-12-02T10:17:52.268Z,90.90
2017-12-02T10:18:54.781Z,90.90
2017-12-02T10:19:57.301Z,91.10
2017-12-02T10:20:59.966Z,90.80
2017-12-02T10:22:02.534Z,90.90
2017-12-02T10:23:05.085Z,90.80
2017-12-02T10:24:07.616Z,90.50
2017-12-02T10:25:10.901Z,90.00
2017-12-02T10:26:13.421Z,90.00
2017-12-02T10:27:15.979Z,89.30
2017-12-02T10:28:18.501Z,89.30
2017-12-02T10:29:21.022Z,89.70
2017-12-02T10:30:23.538Z,89.60
2017-12-02T10:31:26.065Z,89.50
2017-12-02T10:32:28.634Z,89.50
2017-12-02T10:33:31.157Z,89.70
2017-12-02T10:34:34.445Z,88.90
2017-12-02T10:35:36.969Z,88.90
2017-12-02T10:36:39.501Z,88.70
2017-12-02T10:37:42.052Z,88.40
2017-12-02T10:38:44.575Z,88.80
2017-12-02T10:39:47.113Z,88.90
2017-12-02T10:40:49.646Z,88.60
2017-12-02T10:41:52.173Z,88.50
2017-12-02T10:42:54.741Z,87.40
2017-12-02T10:43:57.260Z,87.60
2017-12-02T10:44:59.777Z,87.90
2017-12-02T10:46:02.289Z,88.80
2017-12-02T10:47:04.820Z,89.30
2017-12-02T10:48:08.137Z,89.40
2017-12-02T10:49:10.668Z,89.20
2017-12-02T10:50:13.962Z,87.40
2017-12-02T10:51:17.257Z,87.70
2017-12-02T10:52:19.786Z,87.70
2017-12-02T10:53:23.134Z,87.40
2017-12-02T10:54:25.736Z,87.40
2017-12-02T10:55:28.270Z,87.70
2017-12-02T10:56:30.810Z,88.30
2017-12-02T10:57:33.335Z,87.40
2017-12-02T10:58:35.879Z,88.00
2017-12-02T10:59:38.491Z,88.10
2017-12-02T11:00:41.776Z,87.80
2017-12-02T11:01:45.070Z,88.10
2017-12-02T11:02:48.349Z,88.30
2017-12-02T11:03:51.635Z,88.90
2017-12-02T11:04:55.050Z,88.40
2017-12-02T11:05:57.568Z,88.30
2017-12-02T11:07:00.093Z,87.60
2017-12-02T11:08:02.618Z,86.70
2017-12-02T11:09:05.906Z,86.90
2017-12-02T11:10:08.465Z,86.90
2017-12-02T11:11:11.757Z,87.40
2017-12-02T11:12:15.046Z,87.00
2017-12-02T11:13:17.573Z,87.00
2017-12-02T11:14:20.144Z,87.30
2017-12-02T11:15:22.664Z,87.90
2017-12-02T11:16:25.197Z,87.20
2017-12-02T11:17:28.486Z,87.60
2017-12-02T11:18:31.782Z,86.70
2017-12-02T11:19:34.346Z,86.60
2017-12-02T11:20:36.866Z,86.60
2017-12-02T11:21:39.390Z,86.90
2017-12-02T11:22:41.918Z,88.50
2017-12-02T11:23:45.202Z,88.10
2017-12-02T11:24:48.530Z,87.80
2017-12-02T11:25:51.053Z,87.60
2017-12-02T11:26:54.341Z,87.90
2017-12-02T11:27:57.634Z,87.60
2017-12-02T11:29:00.925Z,87.30
2017-12-02T11:30:03.498Z,87.30
2017-12-02T11:31:06.020Z,87.30
2017-12-02T11:32:08.546Z,87.20
2017-12-02T11:33:11.104Z,86.80
2017-12-02T11:34:13.617Z,86.70
2017-12-02T11:35:16.193Z,86.40
2017-12-02T11:36:18.728Z,86.10
2017-12-02T11:37:21.253Z,86.90
2017-12-02T11:38:23.769Z,87.20
2017-12-02T11:39:26.284Z,87.80
2017-12-02T11:40:28.943Z,87.60
2017-12-02T11:41:32.230Z,87.60
2017-12-02T11:42:35.527Z,88.50
2017-12-02T11:43:38.052Z,88.50
2017-12-02T11:44:40.572Z,88.50
2017-12-02T11:45:43.141Z,88.10
2017-12-02T11:46:45.669Z,87.10
2017-12-02T11:47:48.959Z,85.50
2017-12-02T11:48:52.246Z,85.10
2017-12-02T11:49:55.533Z,84.80
2017-12-02T11:50:58.868Z,84.50
2017-12-02T11:52:01.401Z,84.50
2017-12-02T11:53:03.929Z,85.20
2017-12-02T11:54:07.220Z,84.60
2017-12-02T11:55:10.514Z,83.40
2017-12-02T11:56:13.857Z,83.80
2017-12-02T11:57:16.396Z,83.80
2017-12-02T11:58:18.920Z,83.40
2017-12-02T11:59:22.220Z,82.90
2017-12-02T12:00:24.745Z,82.80
2017-12-02T12:01:27.316Z,82.50
2017-12-02T12:02:29.852Z,81.20
2017-12-02T12:03:32.381Z,80.30
2017-12-02T12:04:35.676Z,78.90
2017-12-02T12:05:38.250Z,79.50
2017-12-02T12:06:40.813Z,78.80
2017-12-02T12:07:43.332Z,77.10
2017-12-02T12:08:45.874Z,76.30
2017-12-02T12:09:49.186Z,77.20
2017-12-02T12:10:52.593Z,76.70
2017-12-02T12:11:55.909Z,78.00
2017-12-02T12:12:58.429Z,78.00
2017-12-02T12:14:00.989Z,78.30
2017-12-02T12:15:03.518Z,78.10
2017-12-02T12:16:06.049Z,78.20
2017-12-02T12:17:08.575Z,78.20
2017-12-02T12:18:12.601Z,80.30
2017-12-02T12:19:15.925Z,81.20
2017-12-02T12:20:18.454Z,81.10
2017-12-02T12:21:21.755Z,78.30
2017-12-02T12:22:24.277Z,78.20
2017-12-02T12:23:26.809Z,78.70
2017-12-02T12:24:29.373Z,80.10
2017-12-02T12:25:31.896Z,80.00
2017-12-02T12:26:35.189Z,80.00
2017-12-02T12:27:38.661Z,80.90
2017-12-02T12:28:41.182Z,80.90
2017-12-02T12:29:43.750Z,79.80
2017-12-02T12:30:46.269Z,77.80
2017-12-02T12:31:49.548Z,77.50
2017-12-02T12:32:52.064Z,77.50
2017-12-02T12:33:54.610Z,78.30
2017-12-02T12:34:57.170Z,79.10
2017-12-02T12:35:59.692Z,77.60
2017-12-02T12:38:11.133Z,76.70
2017-12-02T12:39:13.670Z,77.00
2017-12-02T12:40:16.982Z,76.30
2017-12-02T12:41:19.533Z,76.30
2017-12-02T12:42:22.050Z,75.30
2017-12-02T12:43:24.576Z,74.60
2017-12-02T12:44:27.136Z,74.20
2017-12-02T12:45:29.667Z,72.70
2017-12-02T12:46:32.198Z,73.20
2017-12-02T12:47:34.759Z,73.50
2017-12-02T12:48:37.297Z,73.90
2017-12-02T12:49:39.814Z,73.50
2017-12-02T12:50:43.258Z,72.20
2017-12-02T12:51:45.930Z,73.40
2017-12-02T12:52:48.488Z,73.50
2017-12-02T12:53:51.010Z,72.80
2017-12-02T12:54:53.525Z,72.80
2017-12-02T12:55:56.038Z,74.30
2017-12-02T12:56:59.347Z,74.40
2017-12-02T12:58:02.678Z,74.10
2017-12-02T12:59:05.194Z,74.10
2017-12-02T13:00:08.477Z,73.50
2017-12-02T13:01:11.781Z,73.10
2017-12-02T13:02:14.310Z,73.10
2017-12-02T13:03:16.873Z,73.50
2017-12-02T13:04:19.404Z,74.50
2017-12-02T13:05:21.917Z,75.30
2017-12-02T13:06:24.441Z,75.10
2017-12-02T13:07:26.958Z,75.30
2017-12-02T13:08:30.274Z,74.90
2017-12-02T13:09:32.790Z,74.80
2017-12-02T13:10:35.305Z,75.00
2017-12-02T13:11:37.821Z,75.10
2017-12-02T13:12:40.389Z,75.50
2017-12-02T13:13:42.905Z,75.30
2017-12-02T13:14:45.417Z,75.00
2017-12-02T13:15:47.950Z,75.10
2017-12-02T13:16:50.463Z,74.90
2017-12-02T13:17:53.834Z,75.50
2017-12-02T13:18:56.353Z,75.40
2017-12-02T13:19:58.873Z,75.40
2017-12-02T13:21:01.393Z,75.10
2017-12-02T13:22:03.913Z,75.10
2017-12-02T13:23:06.465Z,75.20
2017-12-02T13:24:08.986Z,75.50
2017-12-02T13:25:11.526Z,75.60
2017-12-02T13:26:14.809Z,76.20
2017-12-02T13:27:18.103Z,76.70
2017-12-02T13:28:20.693Z,76.70
2017-12-02T13:29:23.198Z,75.70
2017-12-02T13:30:25.717Z,75.80